createdAt,value
2022-12-25T00:01:33.847Z,12.03
2022-12-25T00:04:01.915Z,13.27
2022-12-25T00:06:29.749Z,10.90
2022-12-25T00:08:57.494Z,10.67
2022-12-25T00:11:25.185Z,11.10
2022-12-25T00:13:52.947Z,10.47
2022-12-25T00:16:22.239Z,10.87
2022-12-25T00:18:52.295Z,11.50
2022-12-25T00:21:20.787Z,11.07
2022-12-25T00:23:48.658Z,11.13
2022-12-25T00:26:17.692Z,12.57
2022-12-25T00:28:45.549Z,11.57
2022-12-25T00:31:14.953Z,12.30
2022-12-25T00:33:44.600Z,11.67
2022-12-25T00:36:14.789Z,11.07
2022-12-25T00:38:42.745Z,12.63
2022-12-25T00:41:12.809Z,12.87
2022-12-25T00:43:42.562Z,12.27
2022-12-25T00:46:11.248Z,12.60
2022-12-25T00:48:39.431Z,11.60
2022-12-25T00:51:08.188Z,11.27
2022-12-25T00:53:37.264Z,12.60
2022-12-25T00:56:07.253Z,11.87
2022-12-25T00:58:36.898Z,11.23
2022-12-25T01:01:05.241Z,11.73
2022-12-25T01:03:32.970Z,12.30
2022-12-25T01:06:03.107Z,11.60
2022-12-25T01:08:32.796Z,12.73
2022-12-25T01:11:02.564Z,11.23
2022-12-25T01:13:31.163Z,12.90
2022-12-25T01:15:58.858Z,14.00
2022-12-25T01:18:26.592Z,12.03
2022-12-25T01:20:54.363Z,12.30
2022-12-25T01:23:22.168Z,11.87
2022-12-25T01:25:50.456Z,13.07
2022-12-25T01:28:19.529Z,12.20
2022-12-25T01:30:49.612Z,14.00
2022-12-25T01:33:17.688Z,11.57
2022-12-25T01:35:45.286Z,12.17
2022-12-25T01:38:12.963Z,11.73
2022-12-25T01:40:40.979Z,12.63
2022-12-25T01:43:19.692Z,12.13
2022-12-25T01:45:48.503Z,12.83
2022-12-25T01:48:21.333Z,13.33
2022-12-25T01:50:54.628Z,12.13
2022-12-25T01:53:22.517Z,12.47
2022-12-25T01:55:53.051Z,14.30
2022-12-25T01:58:22.247Z,13.70
2022-12-25T02:00:49.960Z,13.30
2022-12-25T02:03:18.056Z,13.03
2022-12-25T02:05:46.961Z,13.30
2022-12-25T02:08:17.479Z,14.77
2022-12-25T02:10:45.645Z,13.90
2022-12-25T02:13:14.475Z,15.57
2022-12-25T02:15:49.354Z,14.17
2022-12-25T02:18:23.444Z,15.50
2022-12-25T02:21:08.394Z,14.40
2022-12-25T02:24:08.232Z,13.00
2022-12-25T02:26:54.904Z,13.97
2022-12-25T02:29:26.827Z,14.83
2022-12-25T02:31:59.767Z,13.30
2022-12-25T02:34:33.208Z,14.00
2022-12-25T02:37:05.704Z,13.80
2022-12-25T02:39:59.268Z,13.47
2022-12-25T02:42:54.389Z,12.33
2022-12-25T02:45:45.426Z,14.17
2022-12-25T02:48:31.323Z,13.10
2022-12-25T02:51:18.816Z,12.80
2022-12-25T02:54:09.563Z,13.70
2022-12-25T02:56:58.509Z,13.67
2022-12-25T02:59:44.598Z,13.57
2022-12-25T03:02:32.057Z,14.43
2022-12-25T03:05:19.230Z,15.37
2022-12-25T03:07:47.042Z,13.57
2022-12-25T03:10:33.755Z,14.93
2022-12-25T03:13:06.092Z,15.50
2022-12-25T03:15:52.773Z,15.30
2022-12-25T03:18:24.969Z,14.70
2022-12-25T03:21:10.339Z,17.70
2022-12-25T03:23:58.208Z,15.77
2022-12-25T03:26:44.465Z,15.70
2022-12-25T03:29:33.663Z,19.23
2022-12-25T03:32:07.074Z,17.13
2022-12-25T03:35:13.026Z,16.10
2022-12-25T03:38:13.068Z,17.53
2022-12-25T03:41:07.226Z,16.20
2022-12-25T03:43:59.156Z,15.13
2022-12-25T03:46:50.340Z,16.67
2022-12-25T03:49:41.305Z,15.80
2022-12-25T03:52:30.765Z,16.97
2022-12-25T03:55:18.028Z,16.80
2022-12-25T03:58:03.425Z,16.13
2022-12-25T04:00:49.013Z,16.50
2022-12-25T04:03:34.984Z,15.67
2022-12-25T04:06:20.605Z,16.47
2022-12-25T04:09:07.031Z,14.40
2022-12-25T04:11:54.952Z,14.93
2022-12-25T04:14:44.262Z,14.60
2022-12-25T04:17:28.826Z,14.33
2022-12-25T04:20:14.182Z,13.90
2022-12-25T04:22:59.459Z,16.17
2022-12-25T04:25:57.503Z,15.20
2022-12-25T04:28:45.798Z,14.20
2022-12-25T04:31:31.459Z,14.23
2022-12-25T04:34:22.013Z,14.90
2022-12-25T04:36:49.699Z,14.40
2022-12-25T04:39:17.346Z,13.90
2022-12-25T04:41:46.386Z,14.43
2022-12-25T04:44:14.170Z,13.57
2022-12-25T04:46:42.033Z,14.60
2022-12-25T04:49:10.049Z,14.63
2022-12-25T04:51:37.883Z,15.07
2022-12-25T04:54:06.466Z,14.90
2022-12-25T04:56:35.672Z,15.43
2022-12-25T04:59:07.786Z,14.20
2022-12-25T05:01:36.771Z,15.03
2022-12-25T05:04:04.507Z,13.53
2022-12-25T05:06:32.229Z,14.47
2022-12-25T05:08:59.922Z,14.73
2022-12-25T05:11:27.623Z,14.93
2022-12-25T05:13:55.414Z,15.33
2022-12-25T05:16:24.631Z,15.00
2022-12-25T05:18:53.123Z,14.30
2022-12-25T05:21:21.276Z,15.63
2022-12-25T05:23:51.190Z,15.90
2022-12-25T05:26:21.429Z,14.83
2022-12-25T05:28:49.463Z,14.60
2022-12-25T05:31:18.070Z,14.20
2022-12-25T05:33:47.137Z,15.00
2022-12-25T05:36:14.886Z,15.50
2022-12-25T05:38:42.592Z,16.13
2022-12-25T05:41:10.437Z,15.43
2022-12-25T05:43:38.317Z,16.17
2022-12-25T05:46:07.942Z,14.40
2022-12-25T05:48:37.106Z,15.77
2022-12-25T05:51:08.245Z,16.20
2022-12-25T05:53:36.645Z,14.53
2022-12-25T05:56:06.065Z,15.97
2022-12-25T05:58:34.993Z,15.10
2022-12-25T06:01:03.073Z,15.70
2022-12-25T06:03:30.884Z,15.60
2022-12-25T06:05:58.561Z,14.27
2022-12-25T06:08:27.757Z,15.57
2022-12-25T06:10:55.489Z,14.87
2022-12-25T06:13:23.172Z,16.50
2022-12-25T06:15:50.899Z,17.10
2022-12-25T06:18:18.590Z,15.13
2022-12-25T06:20:46.226Z,16.57
2022-12-25T06:23:14.019Z,16.43
2022-12-25T06:25:43.094Z,15.43
2022-12-25T06:28:10.871Z,16.17
2022-12-25T06:30:38.513Z,15.53
2022-12-25T06:33:06.242Z,15.00
2022-12-25T06:35:33.893Z,15.93
2022-12-25T06:38:01.578Z,15.17
2022-12-25T06:40:29.291Z,14.70
2022-12-25T06:42:58.342Z,15.80
2022-12-25T06:45:26.023Z,15.20
2022-12-25T06:47:53.712Z,16.20
2022-12-25T06:50:21.483Z,16.57
2022-12-25T06:52:49.188Z,15.37
2022-12-25T06:55:17.030Z,16.00
2022-12-25T06:57:44.780Z,14.57
2022-12-25T07:00:15.165Z,15.40
2022-12-25T07:02:45.288Z,17.23
2022-12-25T07:05:12.947Z,15.60
2022-12-25T07:07:40.667Z,14.13
2022-12-25T07:10:09.511Z,16.70
2022-12-25T07:12:37.450Z,16.57
2022-12-25T07:15:06.295Z,16.07
2022-12-25T07:17:35.854Z,15.30
2022-12-25T07:20:03.940Z,13.80
2022-12-25T07:22:31.650Z,15.27
2022-12-25T07:24:59.255Z,15.03
2022-12-25T07:27:27.038Z,14.20
2022-12-25T07:29:54.867Z,15.80
2022-12-25T07:32:22.579Z,14.27
2022-12-25T07:34:51.770Z,14.53
2022-12-25T07:37:19.485Z,13.87
2022-12-25T07:39:47.157Z,14.90
2022-12-25T07:42:14.940Z,15.33
2022-12-25T07:44:42.610Z,14.10
2022-12-25T07:47:10.226Z,14.10
2022-12-25T07:49:37.888Z,14.80
2022-12-25T07:52:07.298Z,15.00
2022-12-25T07:54:35.005Z,14.90
2022-12-25T07:57:02.660Z,15.17
2022-12-25T07:59:30.342Z,15.63
2022-12-25T08:01:58.173Z,14.30
2022-12-25T08:04:25.984Z,14.50
2022-12-25T08:06:53.656Z,14.97
2022-12-25T08:09:22.649Z,14.73
2022-12-25T08:11:50.357Z,12.87
2022-12-25T08:14:18.132Z,14.20
2022-12-25T08:16:47.019Z,13.57
2022-12-25T08:19:15.402Z,14.50
2022-12-25T08:21:43.138Z,14.80
2022-12-25T08:24:10.894Z,14.67
2022-12-25T08:26:39.947Z,13.43
2022-12-25T08:29:07.723Z,13.17
2022-12-25T08:31:39.467Z,14.43
2022-12-25T08:34:10.537Z,13.00
2022-12-25T08:36:38.282Z,14.20
2022-12-25T08:39:06.455Z,12.97
2022-12-25T08:41:36.408Z,13.90
2022-12-25T08:44:05.816Z,15.27
2022-12-25T08:46:34.904Z,13.67
2022-12-25T08:49:02.711Z,13.23
2022-12-25T08:51:30.346Z,12.80
2022-12-25T08:54:00.800Z,14.37
2022-12-25T08:56:29.254Z,13.97
2022-12-25T08:58:56.895Z,11.73
2022-12-25T09:01:26.222Z,11.23
2022-12-25T09:03:53.960Z,11.70
2022-12-25T09:06:21.624Z,12.50
2022-12-25T09:08:50.076Z,12.00
2022-12-25T09:11:19.167Z,12.23
2022-12-25T09:13:47.235Z,12.90
2022-12-25T09:16:16.799Z,13.27
2022-12-25T09:18:45.820Z,12.77
2022-12-25T09:21:15.083Z,12.20
2022-12-25T09:23:43.004Z,11.20
2022-12-25T09:26:13.114Z,11.20
2022-12-25T09:28:45.155Z,12.27
2022-12-25T09:31:16.429Z,11.30
2022-12-25T09:33:44.152Z,11.07
2022-12-25T09:36:13.340Z,10.60
2022-12-25T09:38:41.027Z,11.93
2022-12-25T09:41:15.101Z,10.43
2022-12-25T09:43:47.178Z,11.90
2022-12-25T09:46:16.947Z,11.40
2022-12-25T09:48:49.497Z,11.97
2022-12-25T09:51:19.568Z,10.00
2022-12-25T09:53:51.180Z,12.77
2022-12-25T09:56:20.103Z,10.67
2022-12-25T09:58:47.960Z,11.20
2022-12-25T10:01:21.443Z,11.20
2022-12-25T10:03:59.921Z,11.63
2022-12-25T10:06:36.030Z,11.03
2022-12-25T10:09:22.476Z,10.43
2022-12-25T10:12:02.383Z,10.90
2022-12-25T10:14:37.242Z,12.90
2022-12-25T10:17:22.700Z,11.47
2022-12-25T10:19:54.434Z,12.07
2022-12-25T10:22:28.890Z,10.03
2022-12-25T10:24:57.706Z,10.73
2022-12-25T10:27:31.380Z,11.60
2022-12-25T10:30:00.284Z,9.50
2022-12-25T10:32:28.667Z,10.67
2022-12-25T10:34:57.177Z,10.77
2022-12-25T10:37:26.876Z,10.87
2022-12-25T10:39:54.633Z,10.87
2022-12-25T10:42:32.756Z,10.33
2022-12-25T10:45:02.269Z,10.23
2022-12-25T10:47:33.172Z,10.23
2022-12-25T10:50:01.586Z,10.63
2022-12-25T10:52:30.874Z,9.80
2022-12-25T10:54:58.502Z,10.50
2022-12-25T10:57:29.736Z,11.37
2022-12-25T10:59:57.981Z,11.00
2022-12-25T11:02:28.008Z,10.73
2022-12-25T11:05:03.703Z,9.00
2022-12-25T11:07:33.624Z,9.90
2022-12-25T11:10:05.696Z,10.33
2022-12-25T11:12:37.400Z,10.73
2022-12-25T11:15:08.013Z,9.57
2022-12-25T11:17:36.985Z,11.13
2022-12-25T11:20:16.713Z,8.60
2022-12-25T11:22:47.893Z,10.00
2022-12-25T11:25:19.089Z,10.30
2022-12-25T11:27:51.844Z,9.73
2022-12-25T11:30:21.482Z,10.80
2022-12-25T11:32:55.331Z,10.60
2022-12-25T11:35:25.888Z,10.20
2022-12-25T11:37:55.197Z,12.80
2022-12-25T11:40:25.281Z,11.00
2022-12-25T11:42:55.534Z,9.63
2022-12-25T11:45:27.342Z,8.83
2022-12-25T11:47:58.221Z,9.93
2022-12-25T11:50:28.981Z,9.57
2022-12-25T11:53:02.525Z,9.50
2022-12-25T11:55:36.101Z,10.50
2022-12-25T11:58:07.265Z,10.90
2022-12-25T12:00:36.540Z,8.67
2022-12-25T12:03:10.457Z,9.07
2022-12-25T12:05:43.666Z,10.77
2022-12-25T12:08:13.991Z,10.20
2022-12-25T12:10:53.262Z,9.87
2022-12-25T12:13:28.613Z,9.87
2022-12-25T12:15:57.870Z,9.30
2022-12-25T12:18:31.108Z,9.60
2022-12-25T12:21:01.156Z,10.73
2022-12-25T12:23:32.266Z,11.23
2022-12-25T12:26:00.432Z,9.03
2022-12-25T12:28:29.837Z,10.87
2022-12-25T12:30:59.448Z,9.93
2022-12-25T12:33:30.925Z,9.23
2022-12-25T12:35:58.869Z,10.17
2022-12-25T12:38:27.423Z,10.27
2022-12-25T12:40:58.548Z,8.93
2022-12-25T12:43:34.775Z,9.97
2022-12-25T12:46:07.128Z,9.63
2022-12-25T12:48:43.802Z,10.63
2022-12-25T12:51:13.315Z,10.00
2022-12-25T12:53:42.641Z,9.40
2022-12-25T12:56:17.176Z,10.43
2022-12-25T12:58:49.866Z,10.00
2022-12-25T13:01:34.099Z,9.77
2022-12-25T13:04:16.456Z,9.70
2022-12-25T13:06:47.619Z,11.00
2022-12-25T13:09:25.510Z,10.40
2022-12-25T13:11:57.044Z,10.03
2022-12-25T13:14:25.270Z,9.67
2022-12-25T13:16:54.240Z,9.60
2022-12-25T13:19:23.883Z,9.10
2022-12-25T13:21:55.912Z,9.37
2022-12-25T13:24:26.681Z,10.33
2022-12-25T13:26:56.249Z,8.90
2022-12-25T13:29:29.897Z,10.40
2022-12-25T13:31:58.262Z,9.50
2022-12-25T13:34:30.705Z,9.07
2022-12-25T13:36:59.552Z,10.77
2022-12-25T13:39:27.777Z,10.10
2022-12-25T13:42:10.180Z,10.10
2022-12-25T13:44:45.091Z,10.43
2022-12-25T13:47:24.052Z,11.93
2022-12-25T13:49:53.190Z,10.77
2022-12-25T13:52:23.095Z,10.37
2022-12-25T13:54:59.018Z,10.73
2022-12-25T13:57:32.627Z,10.70
2022-12-25T14:00:00.976Z,12.17
2022-12-25T14:02:33.710Z,12.17
2022-12-25T14:05:01.482Z,12.63
2022-12-25T14:07:29.244Z,11.60
2022-12-25T14:09:59.650Z,10.20
2022-12-25T14:12:30.473Z,10.47
2022-12-25T14:14:58.707Z,11.30
2022-12-25T14:17:26.783Z,10.70
2022-12-25T14:20:04.032Z,10.70
2022-12-25T14:22:35.962Z,10.43
2022-12-25T14:25:03.667Z,11.57
2022-12-25T14:27:32.626Z,11.50
2022-12-25T14:30:02.070Z,10.90
2022-12-25T14:32:31.700Z,10.10
2022-12-25T14:35:01.633Z,10.10
2022-12-25T14:37:31.049Z,10.97
2022-12-25T14:40:00.579Z,10.93
2022-12-25T14:42:30.694Z,11.60
2022-12-25T14:45:06.374Z,11.97
2022-12-25T14:47:50.121Z,9.73
2022-12-25T14:50:27.625Z,10.03
2022-12-25T14:52:55.513Z,10.43
2022-12-25T14:55:25.078Z,12.07
2022-12-25T14:57:55.514Z,11.60
2022-12-25T15:00:27.582Z,10.57
2022-12-25T15:02:57.248Z,9.97
2022-12-25T15:05:31.670Z,9.47
2022-12-25T15:08:24.215Z,9.90
2022-12-25T15:11:02.256Z,11.30
2022-12-25T15:13:31.962Z,10.33
2022-12-25T15:16:05.091Z,9.60
2022-12-25T15:18:35.643Z,10.87
2022-12-25T15:21:04.005Z,9.20
2022-12-25T15:23:43.111Z,10.00
2022-12-25T15:26:11.950Z,9.70
2022-12-25T15:28:42.986Z,10.47
2022-12-25T15:31:20.435Z,9.33
2022-12-25T15:33:48.296Z,11.37
2022-12-25T15:36:16.342Z,11.30
2022-12-25T15:38:44.688Z,11.10
2022-12-25T15:41:35.564Z,10.90
2022-12-25T15:44:04.329Z,10.97
2022-12-25T15:46:34.018Z,10.93
2022-12-25T15:49:01.814Z,12.03
2022-12-25T15:51:29.573Z,13.03
2022-12-25T15:53:57.218Z,11.23
2022-12-25T15:56:25.124Z,11.93
2022-12-25T15:58:52.907Z,10.10
2022-12-25T16:01:21.456Z,11.33
2022-12-25T16:03:50.750Z,10.17
2022-12-25T16:06:19.568Z,10.80
2022-12-25T16:08:47.296Z,9.97
2022-12-25T16:11:14.862Z,10.77
2022-12-25T16:13:42.509Z,10.77
2022-12-25T16:16:10.146Z,10.93
2022-12-25T16:18:41.941Z,10.83
2022-12-25T16:21:17.842Z,10.93
2022-12-25T16:23:45.554Z,12.10
2022-12-25T16:26:13.185Z,11.40
2022-12-25T16:28:40.903Z,10.40
2022-12-25T16:31:08.603Z,11.47
2022-12-25T16:33:36.258Z,12.13
2022-12-25T16:36:04.185Z,13.10
2022-12-25T16:38:34.010Z,13.77
2022-12-25T16:41:02.658Z,12.17
2022-12-25T16:43:30.372Z,13.73
2022-12-25T16:45:58.169Z,13.97
2022-12-25T16:48:25.803Z,12.70
2022-12-25T16:50:53.370Z,12.73
2022-12-25T16:53:20.945Z,12.07
2022-12-25T16:55:49.884Z,13.87
2022-12-25T16:58:17.466Z,13.93
2022-12-25T17:00:49.203Z,14.00
2022-12-25T17:03:17.656Z,14.03
2022-12-25T17:05:46.735Z,12.50
2022-12-25T17:08:14.302Z,13.20
2022-12-25T17:10:41.904Z,13.90
2022-12-25T17:13:11.151Z,13.73
2022-12-25T17:15:38.769Z,14.07
2022-12-25T17:18:06.511Z,15.00
2022-12-25T17:20:35.951Z,13.43
2022-12-25T17:23:03.544Z,15.37
2022-12-25T17:25:31.484Z,13.00
2022-12-25T17:27:59.139Z,14.30
2022-12-25T17:30:28.118Z,13.30
2022-12-25T17:32:57.529Z,14.27
2022-12-25T17:35:25.299Z,13.90
2022-12-25T17:37:53.045Z,12.30
2022-12-25T17:40:22.657Z,14.80
2022-12-25T17:42:52.784Z,14.63
2022-12-25T17:45:20.456Z,14.50
2022-12-25T17:47:49.491Z,14.50
2022-12-25T17:50:17.155Z,13.60
2022-12-25T17:52:44.811Z,13.83
2022-12-25T17:55:12.451Z,14.60
2022-12-25T17:57:41.332Z,14.83
2022-12-25T18:00:09.840Z,13.67
2022-12-25T18:02:37.975Z,13.17
2022-12-25T18:05:08.477Z,14.83
2022-12-25T18:07:36.197Z,14.40
2022-12-25T18:10:04.120Z,14.30
2022-12-25T18:12:31.737Z,13.40
2022-12-25T18:14:59.370Z,13.10
2022-12-25T18:17:27.067Z,13.20
2022-12-25T18:19:54.951Z,11.87
2022-12-25T18:22:23.830Z,12.40
2022-12-25T18:24:51.678Z,13.00
2022-12-25T18:27:19.393Z,13.23
2022-12-25T18:29:47.084Z,14.37
2022-12-25T18:32:14.817Z,13.20
2022-12-25T18:34:42.387Z,13.77
2022-12-25T18:37:09.965Z,12.90
2022-12-25T18:39:39.082Z,13.87
2022-12-25T18:42:24.450Z,13.77
2022-12-25T18:44:54.069Z,12.87
2022-12-25T18:47:21.718Z,13.10
2022-12-25T18:49:49.396Z,15.13
2022-12-25T18:52:48.867Z,13.27
2022-12-25T18:55:07.181Z,13.47
2022-12-25T18:57:35.629Z,14.00
2022-12-25T19:00:04.838Z,13.17
2022-12-25T19:02:32.586Z,12.90
2022-12-25T19:05:00.559Z,12.73
2022-12-25T19:07:28.246Z,12.57
2022-12-25T19:09:55.842Z,11.83
2022-12-25T19:12:25.160Z,12.80
2022-12-25T19:14:52.813Z,12.33
2022-12-25T19:17:20.594Z,12.97
2022-12-25T19:19:48.342Z,14.00
2022-12-25T19:22:16.486Z,12.87
2022-12-25T19:24:44.355Z,13.50
2022-12-25T19:27:12.029Z,11.70
2022-12-25T19:29:40.975Z,13.03
2022-12-25T19:32:08.647Z,11.80
2022-12-25T19:34:36.330Z,12.73
2022-12-25T19:37:04.266Z,13.90
2022-12-25T19:39:31.813Z,12.80
2022-12-25T19:41:59.391Z,13.10
2022-12-25T19:44:26.991Z,13.70
2022-12-25T19:46:56.587Z,12.17
2022-12-25T19:49:24.202Z,10.43
2022-12-25T19:51:51.949Z,11.23
2022-12-25T19:54:20.757Z,12.23
2022-12-25T19:56:49.074Z,14.17
2022-12-25T19:59:17.173Z,12.00
2022-12-25T20:01:44.968Z,12.80
2022-12-25T20:04:14.105Z,11.07
2022-12-25T20:06:42.640Z,10.13
2022-12-25T20:09:13.707Z,10.63
2022-12-25T20:11:42.051Z,11.10
2022-12-25T20:14:10.261Z,10.50
2022-12-25T20:16:39.007Z,9.90
2022-12-25T20:19:07.036Z,10.13
2022-12-25T20:21:36.097Z,9.57
2022-12-25T20:24:03.946Z,10.47
2022-12-25T20:26:32.243Z,9.03
2022-12-25T20:29:00.424Z,8.63
2022-12-25T20:31:29.743Z,9.47
2022-12-25T20:33:59.508Z,9.60
2022-12-25T20:36:32.634Z,8.70
2022-12-25T20:39:08.224Z,9.63
2022-12-25T20:41:36.297Z,9.93
2022-12-25T20:44:04.192Z,10.23
2022-12-25T20:46:31.954Z,10.03
2022-12-25T20:48:59.857Z,9.13
2022-12-25T20:51:28.055Z,8.77
2022-12-25T20:53:56.669Z,9.03
2022-12-25T20:56:27.511Z,7.80
2022-12-25T20:58:55.807Z,8.50
2022-12-25T21:01:23.685Z,8.97
2022-12-25T21:03:51.664Z,8.23
2022-12-25T21:06:19.473Z,8.40
2022-12-25T21:08:48.411Z,9.27
2022-12-25T21:11:17.601Z,7.80
2022-12-25T21:13:46.879Z,8.60
2022-12-25T21:16:17.269Z,6.80
2022-12-25T21:18:45.269Z,6.07
2022-12-25T21:21:15.224Z,5.80
2022-12-25T21:23:42.878Z,6.00
2022-12-25T21:26:16.796Z,6.40
2022-12-25T21:28:45.830Z,5.90
2022-12-25T21:31:13.558Z,7.80
2022-12-25T21:33:52.172Z,7.47
2022-12-25T21:36:22.091Z,6.40
2022-12-25T21:38:53.894Z,6.70
2022-12-25T21:41:21.598Z,6.63
2022-12-25T21:43:50.810Z,6.10
2022-12-25T21:46:18.656Z,7.07
2022-12-25T21:48:46.895Z,7.07
2022-12-25T21:51:34.319Z,7.97
2022-12-25T21:54:02.431Z,7.60
2022-12-25T21:56:31.050Z,7.90
2022-12-25T21:59:01.372Z,8.13
2022-12-25T22:01:29.349Z,8.30
2022-12-25T22:03:58.069Z,7.67
2022-12-25T22:06:43.656Z,8.93
2022-12-25T22:09:11.344Z,8.70
2022-12-25T22:11:56.516Z,8.10
2022-12-25T22:14:52.481Z,7.43
2022-12-25T22:17:40.998Z,8.20
2022-12-25T22:20:11.415Z,8.07
2022-12-25T22:22:39.083Z,8.27
2022-12-25T22:25:08.969Z,8.47
2022-12-25T22:27:38.635Z,8.33
2022-12-25T22:30:10.126Z,7.57
2022-12-25T22:32:38.123Z,7.27
2022-12-25T22:35:06.438Z,7.47
2022-12-25T22:37:34.298Z,7.27
2022-12-25T22:40:02.913Z,8.30
2022-12-25T22:42:30.724Z,7.70
2022-12-25T22:44:58.367Z,8.17
2022-12-25T22:47:27.532Z,7.97
2022-12-25T22:49:55.229Z,7.40
2022-12-25T22:52:22.882Z,8.20
2022-12-25T22:54:50.522Z,7.80
2022-12-25T22:57:18.262Z,8.40
2022-12-25T22:59:46.961Z,7.60
2022-12-25T23:02:14.805Z,8.30
2022-12-25T23:04:43.947Z,7.67
2022-12-25T23:07:14.476Z,7.53
2022-12-25T23:09:42.810Z,7.97
2022-12-25T23:12:31.472Z,7.60
2022-12-25T23:14:58.343Z,6.30
2022-12-25T23:17:43.396Z,6.93
2022-12-25T23:20:32.052Z,7.30
2022-12-25T23:23:17.297Z,7.20
2022-12-25T23:26:11.137Z,7.23
2022-12-25T23:28:57.518Z,8.27
2022-12-25T23:31:27.483Z,7.60
2022-12-25T23:33:55.339Z,9.67
2022-12-25T23:36:24.604Z,9.63
2022-12-25T23:38:52.224Z,9.20
2022-12-25T23:41:19.928Z,9.10
2022-12-25T23:43:47.821Z,7.93
2022-12-25T23:46:16.081Z,9.67
2022-12-25T23:48:44.104Z,8.90
2022-12-25T23:51:11.992Z,11.27
2022-12-25T23:53:41.025Z,11.60
2022-12-25T23:56:10.539Z,10.47
2022-12-25T23:58:38.677Z,10.67
